METAR Formatted Surface Weather Observation
Issued by NWS

Home | Current Version | Previous Version | Text Only | Print | Product List | Glossary On
Versions: 1
414
SAUS46 KSTO 191354
MTRBLU
METAR KBLU 191352Z AUTO 00000KT 10SM BKN006 06/06 A3004 RMK AO2 CIG
005V009 SLP138 T00610056 TSNO



USA.gov is the U.S. government's official web portal to all federal, state and local government web resources and services.